sensor_id;sensor_type;location;lat;lon;timestamp;temperature;humidity
50758;DHT22;36732;47.980;11.652;2023-07-31T00:00:33;22.40;50.30
50758;DHT22;36732;47.980;11.652;2023-07-31T00:02:59;22.40;50.30
50758;DHT22;36732;47.980;11.652;2023-07-31T00:05:25;22.40;50.50
50758;DHT22;36732;47.980;11.652;2023-07-31T00:07:50;22.40;50.50
50758;DHT22;36732;47.980;11.652;2023-07-31T00:10:16;22.40;50.60
50758;DHT22;36732;47.980;11.652;2023-07-31T00:12:43;22.40;50.50
50758;DHT22;36732;47.980;11.652;2023-07-31T00:15:10;22.40;50.50
50758;DHT22;36732;47.980;11.652;2023-07-31T00:17:37;22.40;50.50
50758;DHT22;36732;47.980;11.652;2023-07-31T00:20:03;22.40;50.50
50758;DHT22;36732;47.980;11.652;2023-07-31T00:22:29;22.30;50.40
50758;DHT22;36732;47.980;11.652;2023-07-31T00:24:56;22.30;50.30
50758;DHT22;36732;47.980;11.652;2023-07-31T00:27:22;22.30;50.30
50758;DHT22;36732;47.980;11.652;2023-07-31T00:29:48;22.30;50.30
50758;DHT22;36732;47.980;11.652;2023-07-31T00:32:14;22.30;50.30
50758;DHT22;36732;47.980;11.652;2023-07-31T00:34:39;22.30;50.30
50758;DHT22;36732;47.980;11.652;2023-07-31T00:37:05;22.20;50.20
50758;DHT22;36732;47.980;11.652;2023-07-31T00:39:34;22.20;50.20
50758;DHT22;36732;47.980;11.652;2023-07-31T00:42:00;22.20;50.20
50758;DHT22;36732;47.980;11.652;2023-07-31T00:44:26;22.20;50.30
50758;DHT22;36732;47.980;11.652;2023-07-31T00:46:52;22.10;50.40
50758;DHT22;36732;47.980;11.652;2023-07-31T00:49:18;22.10;50.60
50758;DHT22;36732;47.980;11.652;2023-07-31T00:51:43;22.10;50.60
50758;DHT22;36732;47.980;11.652;2023-07-31T00:54:09;22.10;50.70
50758;DHT22;36732;47.980;11.652;2023-07-31T00:56:36;22.10;50.80
50758;DHT22;36732;47.980;11.652;2023-07-31T00:59:02;22.10;50.80
50758;DHT22;36732;47.980;11.652;2023-07-31T01:01:28;22.10;50.80
50758;DHT22;36732;47.980;11.652;2023-07-31T01:03:53;22.00;50.80
50758;DHT22;36732;47.980;11.652;2023-07-31T01:06:37;22.00;51.70
50758;DHT22;36732;47.980;11.652;2023-07-31T01:12:01;22.00;51.40
50758;DHT22;36732;47.980;11.652;2023-07-31T01:14:28;21.90;51.60
50758;DHT22;36732;47.980;11.652;2023-07-31T01:16:54;21.90;51.40
50758;DHT22;36732;47.980;11.652;2023-07-31T01:19:25;21.90;51.40
50758;DHT22;36732;47.980;11.652;2023-07-31T01:30:58;21.90;51.80
50758;DHT22;36732;47.980;11.652;2023-07-31T01:33:26;21.80;51.70
50758;DHT22;36732;47.980;11.652;2023-07-31T01:35:52;21.80;51.80
50758;DHT22;36732;47.980;11.652;2023-07-31T01:38:21;21.80;51.90
50758;DHT22;36732;47.980;11.652;2023-07-31T01:40:51;21.80;52.20
50758;DHT22;36732;47.980;11.652;2023-07-31T01:43:18;21.80;52.20
50758;DHT22;36732;47.980;11.652;2023-07-31T01:45:44;21.80;52.30
50758;DHT22;36732;47.980;11.652;2023-07-31T01:48:10;21.80;52.40
50758;DHT22;36732;47.980;11.652;2023-07-31T01:50:36;21.70;52.50
50758;DHT22;36732;47.980;11.652;2023-07-31T01:53:01;21.70;52.50
50758;DHT22;36732;47.980;11.652;2023-07-31T01:55:27;21.80;52.60
50758;DHT22;36732;47.980;11.652;2023-07-31T01:57:53;21.70;52.60
50758;DHT22;36732;47.980;11.652;2023-07-31T02:00:19;21.70;52.60
50758;DHT22;36732;47.980;11.652;2023-07-31T02:02:45;21.70;52.70
50758;DHT22;36732;47.980;11.652;2023-07-31T02:05:10;21.70;52.70
50758;DHT22;36732;47.980;11.652;2023-07-31T02:07:36;21.70;52.60
50758;DHT22;36732;47.980;11.652;2023-07-31T02:10:02;21.70;52.70
50758;DHT22;36732;47.980;11.652;2023-07-31T02:12:28;21.70;52.80
50758;DHT22;36732;47.980;11.652;2023-07-31T02:14:56;21.70;52.90
50758;DHT22;36732;47.980;11.652;2023-07-31T02:17:22;21.70;52.90
50758;DHT22;36732;47.980;11.652;2023-07-31T02:19:48;21.70;53.10
50758;DHT22;36732;47.980;11.652;2023-07-31T02:22:13;21.70;53.00
50758;DHT22;36732;47.980;11.652;2023-07-31T02:24:39;21.70;52.90
50758;DHT22;36732;47.980;11.652;2023-07-31T02:27:05;21.70;53.00
50758;DHT22;36732;47.980;11.652;2023-07-31T02:29:31;21.70;53.00
50758;DHT22;36732;47.980;11.652;2023-07-31T02:31:57;21.70;53.10
50758;DHT22;36732;47.980;11.652;2023-07-31T02:34:22;21.70;53.20
50758;DHT22;36732;47.980;11.652;2023-07-31T02:36:48;21.70;53.20
50758;DHT22;36732;47.980;11.652;2023-07-31T02:39:14;21.70;53.20
50758;DHT22;36732;47.980;11.652;2023-07-31T02:41:39;21.70;53.20
50758;DHT22;36732;47.980;11.652;2023-07-31T02:44:05;21.70;53.20
50758;DHT22;36732;47.980;11.652;2023-07-31T02:46:31;21.70;53.20
50758;DHT22;36732;47.980;11.652;2023-07-31T02:48:56;21.70;53.30
50758;DHT22;36732;47.980;11.652;2023-07-31T02:51:22;21.70;53.20
50758;DHT22;36732;47.980;11.652;2023-07-31T02:53:48;21.70;53.20
50758;DHT22;36732;47.980;11.652;2023-07-31T02:56:14;21.70;53.40
50758;DHT22;36732;47.980;11.652;2023-07-31T02:58:40;21.70;53.40
50758;DHT22;36732;47.980;11.652;2023-07-31T03:01:06;21.70;53.50
50758;DHT22;36732;47.980;11.652;2023-07-31T03:03:32;21.70;53.60
50758;DHT22;36732;47.980;11.652;2023-07-31T03:05:57;21.70;53.50
50758;DHT22;36732;47.980;11.652;2023-07-31T03:08:23;21.60;53.50
50758;DHT22;36732;47.980;11.652;2023-07-31T03:10:49;21.60;53.50
50758;DHT22;36732;47.980;11.652;2023-07-31T03:13:14;21.60;53.50
50758;DHT22;36732;47.980;11.652;2023-07-31T03:15:42;21.60;53.50
50758;DHT22;36732;47.980;11.652;2023-07-31T03:18:08;21.60;53.60
50758;DHT22;36732;47.980;11.652;2023-07-31T03:20:34;21.60;53.60
50758;DHT22;36732;47.980;11.652;2023-07-31T03:23:00;21.60;53.60
50758;DHT22;36732;47.980;11.652;2023-07-31T03:25:26;21.60;53.70
50758;DHT22;36732;47.980;11.652;2023-07-31T03:27:51;21.60;53.70
50758;DHT22;36732;47.980;11.652;2023-07-31T03:30:17;21.60;53.70
50758;DHT22;36732;47.980;11.652;2023-07-31T03:32:43;21.60;53.70
50758;DHT22;36732;47.980;11.652;2023-07-31T03:35:08;21.60;53.70
50758;DHT22;36732;47.980;11.652;2023-07-31T03:37:34;21.60;53.60
50758;DHT22;36732;47.980;11.652;2023-07-31T03:40:00;21.60;53.60
50758;DHT22;36732;47.980;11.652;2023-07-31T03:42:26;21.50;53.50
50758;DHT22;36732;47.980;11.652;2023-07-31T03:44:51;21.50;53.60
50758;DHT22;36732;47.980;11.652;2023-07-31T03:47:17;21.50;53.60
50758;DHT22;36732;47.980;11.652;2023-07-31T03:49:43;21.50;53.60
50758;DHT22;36732;47.980;11.652;2023-07-31T03:52:08;21.50;53.70
50758;DHT22;36732;47.980;11.652;2023-07-31T03:54:34;21.50;53.70
50758;DHT22;36732;47.980;11.652;2023-07-31T03:57:00;21.50;53.80
50758;DHT22;36732;47.980;11.652;2023-07-31T03:59:25;21.50;53.90
50758;DHT22;36732;47.980;11.652;2023-07-31T04:01:51;21.40;54.00
50758;DHT22;36732;47.980;11.652;2023-07-31T04:04:17;21.40;53.90
50758;DHT22;36732;47.980;11.652;2023-07-31T04:06:42;21.40;54.00
50758;DHT22;36732;47.980;11.652;2023-07-31T04:09:08;21.40;54.10
50758;DHT22;36732;47.980;11.652;2023-07-31T04:11:34;21.40;54.10
50758;DHT22;36732;47.980;11.652;2023-07-31T04:13:59;21.40;54.30
50758;DHT22;36732;47.980;11.652;2023-07-31T04:16:25;21.40;54.40
50758;DHT22;36732;47.980;11.652;2023-07-31T04:18:51;21.40;54.60
50758;DHT22;36732;47.980;11.652;2023-07-31T04:21:16;21.40;54.70
50758;DHT22;36732;47.980;11.652;2023-07-31T04:23:43;21.40;54.40
50758;DHT22;36732;47.980;11.652;2023-07-31T04:26:08;21.40;54.90
50758;DHT22;36732;47.980;11.652;2023-07-31T04:28:34;21.40;54.90
50758;DHT22;36732;47.980;11.652;2023-07-31T04:31:00;21.40;54.90
50758;DHT22;36732;47.980;11.652;2023-07-31T04:33:25;21.40;55.00
50758;DHT22;36732;47.980;11.652;2023-07-31T04:35:52;21.30;55.20
50758;DHT22;36732;47.980;11.652;2023-07-31T04:38:19;21.40;55.40
50758;DHT22;36732;47.980;11.652;2023-07-31T04:40:46;21.30;55.30
50758;DHT22;36732;47.980;11.652;2023-07-31T04:43:11;21.40;55.40
50758;DHT22;36732;47.980;11.652;2023-07-31T04:45:37;21.40;55.40
50758;DHT22;36732;47.980;11.652;2023-07-31T04:48:03;21.40;55.50
50758;DHT22;36732;47.980;11.652;2023-07-31T04:50:29;21.40;55.70
50758;DHT22;36732;47.980;11.652;2023-07-31T04:52:56;21.40;55.80
50758;DHT22;36732;47.980;11.652;2023-07-31T04:55:21;21.30;55.80
50758;DHT22;36732;47.980;11.652;2023-07-31T04:57:47;21.40;55.80
50758;DHT22;36732;47.980;11.652;2023-07-31T05:00:13;21.40;55.90
50758;DHT22;36732;47.980;11.652;2023-07-31T05:02:39;21.40;55.90
50758;DHT22;36732;47.980;11.652;2023-07-31T05:05:05;21.40;55.90
50758;DHT22;36732;47.980;11.652;2023-07-31T05:07:30;21.40;55.90
50758;DHT22;36732;47.980;11.652;2023-07-31T05:09:56;21.40;55.90
50758;DHT22;36732;47.980;11.652;2023-07-31T05:12:22;21.50;56.00
50758;DHT22;36732;47.980;11.652;2023-07-31T05:14:47;21.50;56.00
50758;DHT22;36732;47.980;11.652;2023-07-31T05:17:13;21.50;56.20
50758;DHT22;36732;47.980;11.652;2023-07-31T05:19:39;21.60;57.50
50758;DHT22;36732;47.980;11.652;2023-07-31T05:22:05;21.90;57.90
50758;DHT22;36732;47.980;11.652;2023-07-31T05:24:31;22.20;57.30
50758;DHT22;36732;47.980;11.652;2023-07-31T05:26:57;22.60;57.10
50758;DHT22;36732;47.980;11.652;2023-07-31T05:29:23;23.20;57.20
50758;DHT22;36732;47.980;11.652;2023-07-31T05:31:48;23.70;56.30
50758;DHT22;36732;47.980;11.652;2023-07-31T05:34:14;24.20;55.30
50758;DHT22;36732;47.980;11.652;2023-07-31T05:36:40;24.70;54.50
50758;DHT22;36732;47.980;11.652;2023-07-31T05:39:05;25.20;53.70
50758;DHT22;36732;47.980;11.652;2023-07-31T05:41:34;25.70;53.20
50758;DHT22;36732;47.980;11.652;2023-07-31T05:44:00;26.10;52.10
50758;DHT22;36732;47.980;11.652;2023-07-31T05:46:26;26.50;51.70
50758;DHT22;36732;47.980;11.652;2023-07-31T05:48:52;26.80;50.70
50758;DHT22;36732;47.980;11.652;2023-07-31T05:51:18;27.10;49.60
50758;DHT22;36732;47.980;11.652;2023-07-31T05:53:43;27.20;48.50
50758;DHT22;36732;47.980;11.652;2023-07-31T05:56:09;27.30;48.00
50758;DHT22;36732;47.980;11.652;2023-07-31T05:58:35;27.30;47.30
50758;DHT22;36732;47.980;11.652;2023-07-31T06:01:00;27.40;47.00
50758;DHT22;36732;47.980;11.652;2023-07-31T06:03:26;27.30;46.80
50758;DHT22;36732;47.980;11.652;2023-07-31T06:05:52;27.30;46.60
50758;DHT22;36732;47.980;11.652;2023-07-31T06:08:18;27.20;46.20
50758;DHT22;36732;47.980;11.652;2023-07-31T06:10:43;27.10;46.00
50758;DHT22;36732;47.980;11.652;2023-07-31T06:13:09;26.90;45.60
50758;DHT22;36732;47.980;11.652;2023-07-31T06:15:35;26.70;45.60
50758;DHT22;36732;47.980;11.652;2023-07-31T06:18:00;26.50;45.70
50758;DHT22;36732;47.980;11.652;2023-07-31T06:20:27;26.30;45.90
50758;DHT22;36732;47.980;11.652;2023-07-31T06:22:53;26.10;46.20
50758;DHT22;36732;47.980;11.652;2023-07-31T06:25:19;25.90;46.30
50758;DHT22;36732;47.980;11.652;2023-07-31T06:27:45;25.70;46.50
50758;DHT22;36732;47.980;11.652;2023-07-31T06:30:11;25.50;46.70
50758;DHT22;36732;47.980;11.652;2023-07-31T06:32:37;25.30;46.90
50758;DHT22;36732;47.980;11.652;2023-07-31T06:35:03;25.10;47.10
50758;DHT22;36732;47.980;11.652;2023-07-31T06:37:29;25.00;47.30
50758;DHT22;36732;47.980;11.652;2023-07-31T06:39:54;24.90;47.70
50758;DHT22;36732;47.980;11.652;2023-07-31T06:42:20;24.70;47.90
50758;DHT22;36732;47.980;11.652;2023-07-31T06:44:46;24.60;48.10
50758;DHT22;36732;47.980;11.652;2023-07-31T06:47:12;24.50;48.00
50758;DHT22;36732;47.980;11.652;2023-07-31T06:49:38;24.30;48.20
50758;DHT22;36732;47.980;11.652;2023-07-31T06:52:04;24.30;48.50
50758;DHT22;36732;47.980;11.652;2023-07-31T06:54:29;24.20;48.60
50758;DHT22;36732;47.980;11.652;2023-07-31T06:56:55;24.10;48.70
50758;DHT22;36732;47.980;11.652;2023-07-31T06:59:21;24.00;48.70
50758;DHT22;36732;47.980;11.652;2023-07-31T07:01:46;23.90;48.70
50758;DHT22;36732;47.980;11.652;2023-07-31T07:04:13;23.80;49.10
50758;DHT22;36732;47.980;11.652;2023-07-31T07:06:39;23.80;49.10
50758;DHT22;36732;47.980;11.652;2023-07-31T07:09:04;23.70;49.20
50758;DHT22;36732;47.980;11.652;2023-07-31T07:11:31;23.70;49.30
50758;DHT22;36732;47.980;11.652;2023-07-31T07:13:57;23.60;49.40
50758;DHT22;36732;47.980;11.652;2023-07-31T07:16:22;23.50;49.60
50758;DHT22;36732;47.980;11.652;2023-07-31T07:18:48;23.50;49.70
50758;DHT22;36732;47.980;11.652;2023-07-31T07:21:14;23.50;50.00
50758;DHT22;36732;47.980;11.652;2023-07-31T07:23:42;23.40;50.00
50758;DHT22;36732;47.980;11.652;2023-07-31T07:26:08;23.40;50.30
50758;DHT22;36732;47.980;11.652;2023-07-31T07:28:33;23.40;50.40
50758;DHT22;36732;47.980;11.652;2023-07-31T07:30:59;23.40;50.60
50758;DHT22;36732;47.980;11.652;2023-07-31T07:33:25;23.30;50.60
50758;DHT22;36732;47.980;11.652;2023-07-31T07:35:50;23.30;50.70
50758;DHT22;36732;47.980;11.652;2023-07-31T07:38:16;23.40;50.80
50758;DHT22;36732;47.980;11.652;2023-07-31T07:40:42;23.30;51.00
50758;DHT22;36732;47.980;11.652;2023-07-31T07:43:08;23.30;51.10
50758;DHT22;36732;47.980;11.652;2023-07-31T07:45:33;23.30;51.20
50758;DHT22;36732;47.980;11.652;2023-07-31T07:47:59;23.30;51.10
50758;DHT22;36732;47.980;11.652;2023-07-31T07:50:25;23.30;51.20
50758;DHT22;36732;47.980;11.652;2023-07-31T07:52:51;23.30;51.10
50758;DHT22;36732;47.980;11.652;2023-07-31T07:55:16;23.40;51.40
50758;DHT22;36732;47.980;11.652;2023-07-31T07:57:42;23.30;51.40
50758;DHT22;36732;47.980;11.652;2023-07-31T08:00:09;23.40;51.30
50758;DHT22;36732;47.980;11.652;2023-07-31T08:02:36;23.40;51.20
50758;DHT22;36732;47.980;11.652;2023-07-31T08:05:01;23.40;51.40
50758;DHT22;36732;47.980;11.652;2023-07-31T08:07:27;23.40;51.50
50758;DHT22;36732;47.980;11.652;2023-07-31T08:09:53;23.40;51.70
50758;DHT22;36732;47.980;11.652;2023-07-31T08:12:19;23.40;51.50
50758;DHT22;36732;47.980;11.652;2023-07-31T08:14:45;23.40;52.20
50758;DHT22;36732;47.980;11.652;2023-07-31T08:17:10;23.50;51.70
50758;DHT22;36732;47.980;11.652;2023-07-31T08:19:36;23.50;51.70
50758;DHT22;36732;47.980;11.652;2023-07-31T08:22:02;23.50;51.60
50758;DHT22;36732;47.980;11.652;2023-07-31T08:24:28;23.50;51.60
50758;DHT22;36732;47.980;11.652;2023-07-31T08:26:53;23.50;51.40
50758;DHT22;36732;47.980;11.652;2023-07-31T08:29:19;23.50;51.30
50758;DHT22;36732;47.980;11.652;2023-07-31T08:31:45;23.60;51.20
50758;DHT22;36732;47.980;11.652;2023-07-31T08:34:10;23.60;51.20
50758;DHT22;36732;47.980;11.652;2023-07-31T08:36:36;23.60;51.10
50758;DHT22;36732;47.980;11.652;2023-07-31T08:39:02;23.60;51.20
50758;DHT22;36732;47.980;11.652;2023-07-31T08:41:29;23.60;51.20
50758;DHT22;36732;47.980;11.652;2023-07-31T08:43:55;23.60;51.20
50758;DHT22;36732;47.980;11.652;2023-07-31T08:46:22;23.60;50.60
50758;DHT22;36732;47.980;11.652;2023-07-31T08:48:48;23.60;50.60
50758;DHT22;36732;47.980;11.652;2023-07-31T08:51:15;23.60;50.70
50758;DHT22;36732;47.980;11.652;2023-07-31T08:53:41;23.60;50.80
50758;DHT22;36732;47.980;11.652;2023-07-31T08:56:07;23.60;50.80
50758;DHT22;36732;47.980;11.652;2023-07-31T08:58:35;23.60;50.80
50758;DHT22;36732;47.980;11.652;2023-07-31T09:01:03;23.60;50.90
50758;DHT22;36732;47.980;11.652;2023-07-31T09:03:33;23.60;50.90
50758;DHT22;36732;47.980;11.652;2023-07-31T09:06:02;23.70;51.00
50758;DHT22;36732;47.980;11.652;2023-07-31T09:08:31;23.70;50.90
50758;DHT22;36732;47.980;11.652;2023-07-31T09:11:01;23.60;50.80
50758;DHT22;36732;47.980;11.652;2023-07-31T09:13:31;23.70;50.90
50758;DHT22;36732;47.980;11.652;2023-07-31T09:15:57;23.60;50.90
50758;DHT22;36732;47.980;11.652;2023-07-31T09:18:23;23.70;50.80
50758;DHT22;36732;47.980;11.652;2023-07-31T09:21:02;23.70;50.80
50758;DHT22;36732;47.980;11.652;2023-07-31T09:23:44;23.60;50.80
50758;DHT22;36732;47.980;11.652;2023-07-31T09:26:37;23.60;50.90
50758;DHT22;36732;47.980;11.652;2023-07-31T09:29:07;23.60;51.10
50758;DHT22;36732;47.980;11.652;2023-07-31T09:31:44;23.60;50.90
50758;DHT22;36732;47.980;11.652;2023-07-31T09:34:10;23.70;51.00
50758;DHT22;36732;47.980;11.652;2023-07-31T09:36:42;23.60;51.00
50758;DHT22;36732;47.980;11.652;2023-07-31T09:39:10;23.60;51.10
50758;DHT22;36732;47.980;11.652;2023-07-31T09:41:38;23.60;50.70
50758;DHT22;36732;47.980;11.652;2023-07-31T09:44:05;23.70;50.90
50758;DHT22;36732;47.980;11.652;2023-07-31T09:46:31;23.70;51.00
50758;DHT22;36732;47.980;11.652;2023-07-31T09:49:13;23.70;51.00
50758;DHT22;36732;47.980;11.652;2023-07-31T09:51:41;23.70;51.00
50758;DHT22;36732;47.980;11.652;2023-07-31T09:54:15;23.70;51.20
50758;DHT22;36732;47.980;11.652;2023-07-31T09:56:43;23.70;51.10
50758;DHT22;36732;47.980;11.652;2023-07-31T09:59:15;23.70;51.00
50758;DHT22;36732;47.980;11.652;2023-07-31T10:01:43;23.70;50.90
50758;DHT22;36732;47.980;11.652;2023-07-31T10:04:10;23.70;51.20
50758;DHT22;36732;47.980;11.652;2023-07-31T10:06:38;23.80;51.20
50758;DHT22;36732;47.980;11.652;2023-07-31T10:09:07;23.80;51.20
50758;DHT22;36732;47.980;11.652;2023-07-31T10:11:58;23.80;51.10
50758;DHT22;36732;47.980;11.652;2023-07-31T10:14:26;23.80;50.60
50758;DHT22;36732;47.980;11.652;2023-07-31T10:16:53;23.80;49.90
50758;DHT22;36732;47.980;11.652;2023-07-31T10:19:20;23.80;50.00
50758;DHT22;36732;47.980;11.652;2023-07-31T10:21:48;23.80;50.30
50758;DHT22;36732;47.980;11.652;2023-07-31T10:24:14;23.80;50.60
50758;DHT22;36732;47.980;11.652;2023-07-31T10:26:41;23.80;50.90
50758;DHT22;36732;47.980;11.652;2023-07-31T10:29:10;23.90;50.90
50758;DHT22;36732;47.980;11.652;2023-07-31T10:31:36;23.90;50.80
50758;DHT22;36732;47.980;11.652;2023-07-31T10:34:02;23.90;50.80
50758;DHT22;36732;47.980;11.652;2023-07-31T10:36:28;23.90;50.30
50758;DHT22;36732;47.980;11.652;2023-07-31T10:38:55;23.90;50.50
50758;DHT22;36732;47.980;11.652;2023-07-31T10:41:30;23.90;50.60
50758;DHT22;36732;47.980;11.652;2023-07-31T10:44:00;23.90;50.20
50758;DHT22;36732;47.980;11.652;2023-07-31T10:46:28;24.00;49.90
50758;DHT22;36732;47.980;11.652;2023-07-31T10:49:01;24.00;50.00
50758;DHT22;36732;47.980;11.652;2023-07-31T10:51:35;24.00;50.00
50758;DHT22;36732;47.980;11.652;2023-07-31T10:54:12;24.00;50.00
50758;DHT22;36732;47.980;11.652;2023-07-31T10:56:38;24.00;49.90
50758;DHT22;36732;47.980;11.652;2023-07-31T10:59:05;24.00;50.00
50758;DHT22;36732;47.980;11.652;2023-07-31T11:01:51;24.00;50.00
50758;DHT22;36732;47.980;11.652;2023-07-31T11:04:25;24.00;50.00
50758;DHT22;36732;47.980;11.652;2023-07-31T11:06:59;24.10;49.60
50758;DHT22;36732;47.980;11.652;2023-07-31T11:09:31;24.10;49.80
50758;DHT22;36732;47.980;11.652;2023-07-31T11:11:58;24.10;49.80
50758;DHT22;36732;47.980;11.652;2023-07-31T11:14:24;24.10;49.90
50758;DHT22;36732;47.980;11.652;2023-07-31T11:16:51;24.10;49.80
50758;DHT22;36732;47.980;11.652;2023-07-31T11:19:26;24.10;50.10
50758;DHT22;36732;47.980;11.652;2023-07-31T11:21:52;24.10;50.20
50758;DHT22;36732;47.980;11.652;2023-07-31T11:24:18;24.10;50.20
50758;DHT22;36732;47.980;11.652;2023-07-31T11:26:53;24.10;50.10
50758;DHT22;36732;47.980;11.652;2023-07-31T11:29:20;24.10;50.20
50758;DHT22;36732;47.980;11.652;2023-07-31T11:31:46;24.20;50.30
50758;DHT22;36732;47.980;11.652;2023-07-31T11:34:13;24.20;50.20
50758;DHT22;36732;47.980;11.652;2023-07-31T11:36:38;24.20;50.10
50758;DHT22;36732;47.980;11.652;2023-07-31T11:39:06;24.20;50.00
50758;DHT22;36732;47.980;11.652;2023-07-31T11:41:33;24.20;49.60
50758;DHT22;36732;47.980;11.652;2023-07-31T11:44:02;24.30;49.30
50758;DHT22;36732;47.980;11.652;2023-07-31T11:46:31;24.30;48.80
50758;DHT22;36732;47.980;11.652;2023-07-31T11:49:00;24.30;48.70
50758;DHT22;36732;47.980;11.652;2023-07-31T11:51:27;24.30;49.00
50758;DHT22;36732;47.980;11.652;2023-07-31T11:53:57;24.30;48.90
50758;DHT22;36732;47.980;11.652;2023-07-31T11:56:24;24.30;48.80
50758;DHT22;36732;47.980;11.652;2023-07-31T11:58:53;24.30;48.90
50758;DHT22;36732;47.980;11.652;2023-07-31T12:01:24;24.30;48.90
50758;DHT22;36732;47.980;11.652;2023-07-31T12:03:50;24.30;49.10
50758;DHT22;36732;47.980;11.652;2023-07-31T12:06:17;24.30;49.20
50758;DHT22;36732;47.980;11.652;2023-07-31T12:08:43;24.30;49.10
50758;DHT22;36732;47.980;11.652;2023-07-31T12:11:09;24.40;49.00
50758;DHT22;36732;47.980;11.652;2023-07-31T12:13:35;24.40;49.00
50758;DHT22;36732;47.980;11.652;2023-07-31T12:16:02;24.40;48.60
50758;DHT22;36732;47.980;11.652;2023-07-31T12:18:33;24.40;48.30
50758;DHT22;36732;47.980;11.652;2023-07-31T12:21:02;24.40;48.10
50758;DHT22;36732;47.980;11.652;2023-07-31T12:23:31;24.40;48.00
50758;DHT22;36732;47.980;11.652;2023-07-31T12:26:13;24.50;47.70
50758;DHT22;36732;47.980;11.652;2023-07-31T12:28:41;24.40;47.00
50758;DHT22;36732;47.980;11.652;2023-07-31T12:31:16;24.50;47.00
50758;DHT22;36732;47.980;11.652;2023-07-31T12:33:45;24.50;47.60
50758;DHT22;36732;47.980;11.652;2023-07-31T12:36:14;24.50;46.60
50758;DHT22;36732;47.980;11.652;2023-07-31T12:38:42;24.50;46.30
50758;DHT22;36732;47.980;11.652;2023-07-31T12:41:08;24.50;46.10
50758;DHT22;36732;47.980;11.652;2023-07-31T12:43:43;24.50;46.20
50758;DHT22;36732;47.980;11.652;2023-07-31T12:46:10;24.50;45.80
50758;DHT22;36732;47.980;11.652;2023-07-31T12:48:37;24.60;46.10
50758;DHT22;36732;47.980;11.652;2023-07-31T12:51:04;24.60;45.60
50758;DHT22;36732;47.980;11.652;2023-07-31T12:53:30;24.60;45.40
50758;DHT22;36732;47.980;11.652;2023-07-31T12:55:56;24.60;45.30
50758;DHT22;36732;47.980;11.652;2023-07-31T12:58:22;24.60;45.30
50758;DHT22;36732;47.980;11.652;2023-07-31T13:00:48;24.60;45.30
50758;DHT22;36732;47.980;11.652;2023-07-31T13:03:14;24.60;45.40
50758;DHT22;36732;47.980;11.652;2023-07-31T13:05:39;24.60;45.10
50758;DHT22;36732;47.980;11.652;2023-07-31T13:08:05;24.60;45.10
50758;DHT22;36732;47.980;11.652;2023-07-31T13:10:31;24.60;45.00
50758;DHT22;36732;47.980;11.652;2023-07-31T13:12:56;24.60;44.70
50758;DHT22;36732;47.980;11.652;2023-07-31T13:15:22;24.60;44.70
50758;DHT22;36732;47.980;11.652;2023-07-31T13:17:48;24.60;44.80
50758;DHT22;36732;47.980;11.652;2023-07-31T13:20:14;24.70;44.80
50758;DHT22;36732;47.980;11.652;2023-07-31T13:22:40;24.70;44.80
50758;DHT22;36732;47.980;11.652;2023-07-31T13:25:06;24.70;44.70
50758;DHT22;36732;47.980;11.652;2023-07-31T13:27:32;24.70;45.00
50758;DHT22;36732;47.980;11.652;2023-07-31T13:29:59;24.70;45.00
50758;DHT22;36732;47.980;11.652;2023-07-31T13:32:24;24.70;45.20
50758;DHT22;36732;47.980;11.652;2023-07-31T13:34:51;24.70;44.90
50758;DHT22;36732;47.980;11.652;2023-07-31T13:37:17;24.70;44.80
50758;DHT22;36732;47.980;11.652;2023-07-31T13:39:43;24.80;45.00
50758;DHT22;36732;47.980;11.652;2023-07-31T13:42:09;24.80;45.00
50758;DHT22;36732;47.980;11.652;2023-07-31T13:44:41;24.80;44.90
50758;DHT22;36732;47.980;11.652;2023-07-31T13:47:08;24.80;44.60
50758;DHT22;36732;47.980;11.652;2023-07-31T13:49:35;24.80;44.80
50758;DHT22;36732;47.980;11.652;2023-07-31T13:52:01;24.80;44.90
50758;DHT22;36732;47.980;11.652;2023-07-31T13:54:27;24.80;44.70
50758;DHT22;36732;47.980;11.652;2023-07-31T13:56:53;24.80;44.50
50758;DHT22;36732;47.980;11.652;2023-07-31T13:59:19;24.80;44.50
50758;DHT22;36732;47.980;11.652;2023-07-31T14:01:45;24.80;44.60
50758;DHT22;36732;47.980;11.652;2023-07-31T14:04:12;24.80;45.00
50758;DHT22;36732;47.980;11.652;2023-07-31T14:06:38;24.80;44.90
50758;DHT22;36732;47.980;11.652;2023-07-31T14:09:04;24.80;44.90
50758;DHT22;36732;47.980;11.652;2023-07-31T14:11:33;24.80;44.80
50758;DHT22;36732;47.980;11.652;2023-07-31T14:13:59;24.90;44.40
50758;DHT22;36732;47.980;11.652;2023-07-31T14:16:24;24.90;44.40
50758;DHT22;36732;47.980;11.652;2023-07-31T14:18:50;24.90;44.20
50758;DHT22;36732;47.980;11.652;2023-07-31T14:21:16;24.90;44.30
50758;DHT22;36732;47.980;11.652;2023-07-31T14:23:44;24.90;44.30
50758;DHT22;36732;47.980;11.652;2023-07-31T14:26:10;24.90;44.50
50758;DHT22;36732;47.980;11.652;2023-07-31T14:28:36;24.90;44.30
50758;DHT22;36732;47.980;11.652;2023-07-31T14:31:02;24.90;44.50
50758;DHT22;36732;47.980;11.652;2023-07-31T14:33:28;24.90;44.80
50758;DHT22;36732;47.980;11.652;2023-07-31T14:35:53;24.90;44.90
50758;DHT22;36732;47.980;11.652;2023-07-31T14:38:19;25.00;45.10
50758;DHT22;36732;47.980;11.652;2023-07-31T14:40:45;25.00;44.90
50758;DHT22;36732;47.980;11.652;2023-07-31T14:43:11;25.00;44.80
50758;DHT22;36732;47.980;11.652;2023-07-31T14:45:37;25.00;45.00
50758;DHT22;36732;47.980;11.652;2023-07-31T14:48:02;25.00;45.00
50758;DHT22;36732;47.980;11.652;2023-07-31T14:50:28;25.00;45.00
50758;DHT22;36732;47.980;11.652;2023-07-31T14:52:54;25.10;44.80
50758;DHT22;36732;47.980;11.652;2023-07-31T14:55:20;25.10;44.80
50758;DHT22;36732;47.980;11.652;2023-07-31T14:57:46;25.10;44.90
50758;DHT22;36732;47.980;11.652;2023-07-31T15:00:12;25.10;44.50
50758;DHT22;36732;47.980;11.652;2023-07-31T15:02:38;25.10;44.40
50758;DHT22;36732;47.980;11.652;2023-07-31T15:05:05;25.10;44.40
50758;DHT22;36732;47.980;11.652;2023-07-31T15:07:32;25.10;44.50
50758;DHT22;36732;47.980;11.652;2023-07-31T15:09:58;25.10;44.30
50758;DHT22;36732;47.980;11.652;2023-07-31T15:12:25;25.10;44.30
50758;DHT22;36732;47.980;11.652;2023-07-31T15:14:52;25.10;44.20
50758;DHT22;36732;47.980;11.652;2023-07-31T15:17:17;25.20;44.20
50758;DHT22;36732;47.980;11.652;2023-07-31T15:19:43;25.20;44.50
50758;DHT22;36732;47.980;11.652;2023-07-31T15:22:09;25.20;44.80
50758;DHT22;36732;47.980;11.652;2023-07-31T15:24:35;25.20;44.40